createdAt,value
2018-05-19T00:02:14.142Z,68.50
2018-05-19T00:04:42.433Z,68.50
2018-05-19T00:07:10.623Z,69.80
2018-05-19T00:09:38.766Z,68.50
2018-05-19T00:12:06.921Z,68.40
2018-05-19T00:14:35.089Z,69.40
2018-05-19T00:17:03.259Z,69.80
2018-05-19T00:19:31.423Z,70.60
2018-05-19T00:21:59.755Z,70.50
2018-05-19T00:24:27.922Z,71.50
2018-05-19T00:26:56.096Z,71.10
2018-05-19T00:29:24.342Z,71.80
2018-05-19T00:31:52.478Z,71.20
2018-05-19T00:34:21.398Z,68.60
2018-05-19T00:36:49.573Z,69.60
2018-05-19T00:39:18.194Z,70.30
2018-05-19T00:41:46.362Z,70.80
2018-05-19T00:44:14.540Z,71.60
2018-05-19T00:46:42.776Z,72.20
2018-05-19T00:49:10.939Z,71.50
2018-05-19T00:51:39.184Z,71.60
2018-05-19T00:54:07.337Z,71.50
2018-05-19T00:56:35.477Z,71.00
2018-05-19T00:59:03.645Z,70.50
2018-05-19T01:01:31.824Z,70.00
2018-05-19T01:04:00.022Z,69.60
2018-05-19T01:06:28.583Z,68.70
2018-05-19T01:08:57.068Z,68.80
2018-05-19T01:11:25.231Z,68.30
2018-05-19T01:13:53.400Z,68.30
2018-05-19T01:16:21.545Z,68.80
2018-05-19T01:18:51.066Z,67.10
2018-05-19T01:21:19.247Z,67.00
2018-05-19T01:23:47.438Z,67.50
2018-05-19T01:26:15.560Z,67.00
2018-05-19T01:28:44.503Z,66.30
2018-05-19T01:31:12.636Z,66.20
2018-05-19T01:33:41.692Z,65.00
2018-05-19T01:36:09.882Z,65.00
2018-05-19T01:38:38.100Z,63.70
2018-05-19T01:41:06.305Z,64.50
2018-05-19T01:43:34.547Z,64.20
2018-05-19T01:46:02.722Z,64.00
2018-05-19T01:48:30.866Z,64.00
2018-05-19T01:50:59.748Z,63.30
2018-05-19T01:53:28.703Z,62.80
2018-05-19T01:55:56.907Z,62.80
2018-05-19T01:58:25.836Z,63.70
2018-05-19T02:00:53.993Z,63.70
2018-05-19T02:03:22.939Z,64.20
2018-05-19T02:05:51.093Z,64.20
2018-05-19T02:08:19.274Z,63.90
2018-05-19T02:10:47.423Z,63.70
2018-05-19T02:13:15.623Z,64.90
2018-05-19T02:15:43.753Z,64.40
2018-05-19T02:18:11.890Z,64.80
2018-05-19T02:20:40.085Z,64.70
2018-05-19T02:23:08.294Z,65.80
2018-05-19T02:25:36.434Z,65.60
2018-05-19T02:28:05.363Z,65.40
2018-05-19T02:30:33.552Z,65.50
2018-05-19T02:33:01.746Z,65.70
2018-05-19T02:35:29.951Z,65.50
2018-05-19T02:37:58.097Z,64.60
2018-05-19T02:40:26.257Z,65.80
2018-05-19T02:42:54.417Z,65.90
2018-05-19T02:45:22.597Z,66.50
2018-05-19T02:47:51.382Z,65.50
2018-05-19T02:50:19.527Z,65.00
2018-05-19T02:52:47.712Z,64.30
2018-05-19T02:55:15.895Z,63.70
2018-05-19T02:57:44.085Z,63.10
2018-05-19T03:00:13.027Z,61.20
2018-05-19T03:02:41.912Z,61.20
2018-05-19T03:05:10.074Z,60.40
2018-05-19T03:07:38.271Z,59.30
2018-05-19T03:10:06.406Z,59.30
2018-05-19T03:12:35.348Z,59.00
2018-05-19T03:15:03.506Z,59.00
2018-05-19T03:17:31.676Z,59.30
2018-05-19T03:19:59.841Z,58.80
2018-05-19T03:22:28.005Z,58.20
2018-05-19T03:24:56.153Z,57.30
2018-05-19T03:27:25.074Z,58.50
2018-05-19T03:29:53.243Z,57.30
2018-05-19T03:32:21.414Z,58.40
2018-05-19T03:34:49.591Z,55.40
2018-05-19T03:37:17.763Z,55.00
2018-05-19T03:39:45.945Z,55.10
2018-05-19T03:42:14.178Z,54.50
2018-05-19T03:44:42.362Z,54.10
2018-05-19T03:47:11.274Z,52.50
2018-05-19T03:49:39.450Z,52.50
2018-05-19T03:52:07.623Z,51.80
2018-05-19T03:54:35.798Z,50.90
2018-05-19T03:57:21.956Z,50.00
2018-05-19T04:00:08.054Z,48.80
2018-05-19T04:02:37.019Z,47.20
2018-05-19T04:05:05.186Z,47.20
2018-05-19T04:07:33.326Z,46.20
2018-05-19T04:10:01.473Z,44.90
2018-05-19T04:12:30.407Z,45.00
2018-05-19T04:14:58.601Z,45.00
2018-05-19T04:17:26.772Z,44.10
2018-05-19T04:19:54.947Z,43.40
2018-05-19T04:22:23.083Z,43.40
2018-05-19T04:24:51.845Z,43.80
2018-05-19T04:27:20.975Z,43.50
2018-05-19T04:29:49.155Z,43.50
2018-05-19T04:32:17.354Z,43.80
2018-05-19T04:34:46.353Z,43.80
2018-05-19T04:37:14.572Z,44.80
2018-05-19T04:39:42.696Z,46.10
2018-05-19T04:42:10.887Z,44.60
2018-05-19T04:44:39.815Z,44.80
2018-05-19T04:47:07.937Z,44.90
2018-05-19T04:49:36.128Z,44.90
2018-05-19T04:52:04.292Z,45.00
2018-05-19T04:54:33.226Z,45.20
2018-05-19T04:57:01.448Z,45.20
2018-05-19T04:59:30.363Z,44.70
2018-05-19T05:01:59.338Z,43.20
2018-05-19T05:04:28.619Z,41.80
2018-05-19T05:06:56.797Z,41.70
2018-05-19T05:09:25.022Z,42.00
2018-05-19T05:11:53.149Z,41.10
2018-05-19T05:14:21.277Z,40.70
2018-05-19T05:16:49.455Z,39.90
2018-05-19T05:19:17.614Z,39.60
2018-05-19T05:21:45.772Z,40.00
2018-05-19T05:24:13.901Z,40.50
2018-05-19T05:26:42.058Z,39.70
2018-05-19T05:29:10.254Z,39.30
2018-05-19T05:31:38.464Z,39.40
2018-05-19T05:34:06.674Z,39.20
2018-05-19T05:36:34.843Z,38.90
2018-05-19T05:39:03.014Z,39.10
2018-05-19T05:41:31.169Z,39.70
2018-05-19T05:43:59.343Z,40.00
2018-05-19T05:46:27.538Z,40.20
2018-05-19T05:48:55.687Z,40.30
2018-05-19T05:51:23.857Z,40.10
2018-05-19T05:53:52.016Z,40.40
2018-05-19T05:56:20.162Z,40.00
2018-05-19T05:58:48.306Z,39.10
2018-05-19T06:01:16.447Z,38.80
2018-05-19T06:03:44.598Z,37.90
2018-05-19T06:06:13.567Z,34.60
2018-05-19T06:08:42.509Z,34.70
2018-05-19T06:11:10.708Z,33.90
2018-05-19T06:13:38.878Z,33.90
2018-05-19T06:16:07.030Z,31.10
2018-05-19T06:18:35.226Z,30.70
2018-05-19T06:21:03.626Z,31.00
2018-05-19T06:23:31.744Z,29.50
2018-05-19T06:25:59.895Z,27.20
2018-05-19T06:28:28.070Z,27.00
2018-05-19T06:30:56.230Z,26.50
2018-05-19T06:33:25.157Z,24.60
2018-05-19T06:35:53.289Z,24.70
2018-05-19T06:38:22.243Z,25.10
2018-05-19T06:40:50.371Z,25.10
2018-05-19T06:43:18.502Z,24.60
2018-05-19T06:45:46.703Z,24.10
2018-05-19T06:48:15.643Z,24.00
2018-05-19T06:50:44.049Z,24.00
2018-05-19T06:53:12.198Z,23.50
2018-05-19T06:55:40.377Z,22.00
2018-05-19T06:58:08.545Z,22.80
2018-05-19T07:00:36.685Z,22.80
2018-05-19T07:03:04.823Z,23.00
2018-05-19T07:05:32.946Z,22.80
2018-05-19T07:08:01.168Z,23.70
2018-05-19T07:10:29.282Z,23.20
2018-05-19T07:12:57.432Z,23.20
2018-05-19T07:15:25.593Z,22.80
2018-05-19T07:17:54.528Z,22.80
2018-05-19T07:20:22.712Z,22.80
2018-05-19T07:22:51.673Z,23.30
2018-05-19T07:25:19.851Z,20.90
2018-05-19T07:27:48.054Z,22.30
2018-05-19T07:30:16.245Z,21.40
2018-05-19T07:32:44.405Z,20.40
2018-05-19T07:35:12.542Z,20.10
2018-05-19T07:37:40.680Z,19.20
2018-05-19T07:40:09.591Z,19.90
2018-05-19T07:42:37.769Z,19.90
2018-05-19T07:45:05.942Z,19.90
2018-05-19T07:47:34.132Z,20.20
2018-05-19T07:50:02.299Z,19.90
2018-05-19T07:52:30.464Z,20.30
2018-05-19T07:54:58.632Z,19.20
2018-05-19T07:57:26.794Z,16.30
2018-05-19T07:59:55.286Z,16.30
2018-05-19T08:02:23.494Z,17.00
2018-05-19T08:04:51.635Z,14.50
2018-05-19T08:07:19.796Z,15.50
2018-05-19T08:09:49.329Z,15.80
2018-05-19T08:12:17.533Z,15.80
2018-05-19T08:14:45.703Z,14.90
2018-05-19T08:17:13.939Z,15.10
2018-05-19T08:19:42.502Z,13.30
2018-05-19T08:22:11.423Z,14.30
2018-05-19T08:24:39.603Z,14.30
2018-05-19T08:27:07.760Z,14.00
2018-05-19T08:29:35.946Z,12.30
2018-05-19T08:32:04.321Z,11.90
2018-05-19T08:34:32.610Z,11.00
2018-05-19T08:37:00.772Z,11.90
2018-05-19T08:39:28.897Z,10.20
2018-05-19T08:41:57.825Z,10.00
2018-05-19T08:44:25.999Z,10.00
2018-05-19T08:46:54.171Z,9.90
2018-05-19T08:49:22.310Z,9.40
2018-05-19T08:51:51.232Z,9.40
2018-05-19T08:54:19.382Z,9.40
2018-05-19T08:56:48.297Z,8.30
2018-05-19T08:59:16.439Z,8.20
2018-05-19T09:01:45.321Z,8.50
2018-05-19T09:04:14.280Z,9.20
2018-05-19T09:06:42.483Z,9.30
2018-05-19T09:09:11.391Z,7.50
2018-05-19T09:11:39.537Z,7.50
2018-05-19T09:14:07.695Z,6.70
2018-05-19T09:16:36.841Z,7.00
2018-05-19T09:19:05.671Z,6.70
2018-05-19T09:21:33.905Z,7.10
2018-05-19T09:24:02.114Z,5.90
2018-05-19T09:26:30.245Z,4.60
2018-05-19T09:28:58.398Z,4.50
2018-05-19T09:31:27.320Z,5.20
2018-05-19T09:33:55.510Z,5.30
2018-05-19T09:36:23.666Z,4.50
2018-05-19T09:38:51.826Z,5.30
2018-05-19T09:41:19.978Z,4.30
2018-05-19T09:43:48.887Z,1.90
2018-05-19T09:46:17.041Z,1.90
2018-05-19T09:48:45.229Z,3.40
2018-05-19T09:51:13.448Z,3.30
2018-05-19T09:53:41.572Z,2.60
2018-05-19T09:56:09.713Z,3.00
2018-05-19T09:58:37.876Z,2.40
2018-05-19T10:01:06.055Z,2.80
2018-05-19T10:03:34.173Z,3.30
2018-05-19T10:06:02.348Z,1.10
2018-05-19T10:08:30.511Z,1.30
2018-05-19T10:10:58.735Z,1.20
2018-05-19T10:13:26.861Z,1.80
2018-05-19T10:15:55.014Z,1.40
2018-05-19T10:18:23.985Z,1.00
2018-05-19T10:20:52.105Z,1.00
2018-05-19T10:23:20.296Z,1.00
2018-05-19T10:25:48.459Z,1.40
2018-05-19T10:28:16.650Z,1.20
2018-05-19T10:30:44.782Z,1.00
2018-05-19T10:33:13.661Z,1.00
2018-05-19T10:35:42.546Z,1.00
2018-05-19T10:38:11.446Z,1.00
2018-05-19T10:40:40.329Z,1.00
2018-05-19T10:43:09.387Z,1.00
2018-05-19T10:45:37.529Z,1.00
2018-05-19T10:48:05.647Z,1.00
2018-05-19T10:50:33.814Z,1.00
2018-05-19T10:53:01.982Z,1.00
2018-05-19T10:55:30.136Z,1.00
2018-05-19T10:57:58.298Z,1.00
2018-05-19T11:00:26.450Z,1.00
2018-05-19T11:02:54.621Z,1.00
2018-05-19T11:05:22.797Z,1.00
2018-05-19T11:07:50.916Z,1.00
2018-05-19T11:10:19.053Z,1.00
2018-05-19T11:12:47.181Z,1.00
2018-05-19T11:15:15.403Z,1.00
2018-05-19T11:17:43.558Z,1.00
2018-05-19T11:20:11.715Z,1.00
2018-05-19T11:22:40.658Z,1.00
2018-05-19T11:25:08.807Z,1.00
2018-05-19T11:27:36.960Z,1.00
2018-05-19T11:30:05.136Z,1.00
2018-05-19T11:32:33.267Z,1.00
2018-05-19T11:35:01.439Z,1.00
2018-05-19T11:37:29.599Z,1.00
2018-05-19T11:39:57.801Z,1.00
2018-05-19T11:42:26.735Z,1.00
2018-05-19T11:44:54.896Z,1.00
2018-05-19T11:47:23.069Z,1.00
2018-05-19T11:49:51.225Z,1.00
2018-05-19T11:52:19.578Z,1.00
2018-05-19T11:54:47.746Z,1.00
2018-05-19T11:57:15.889Z,1.00
2018-05-19T11:59:44.083Z,1.00
2018-05-19T12:02:12.283Z,1.00
2018-05-19T12:04:41.201Z,1.00
2018-05-19T12:07:09.357Z,1.00
2018-05-19T12:09:37.477Z,1.00
2018-05-19T12:12:05.697Z,1.00
2018-05-19T12:14:33.905Z,1.00
2018-05-19T12:17:02.035Z,1.00
2018-05-19T12:19:30.968Z,1.00
2018-05-19T12:21:59.147Z,1.00
2018-05-19T12:24:27.325Z,1.00
2018-05-19T12:26:55.506Z,1.00
2018-05-19T12:29:23.728Z,1.00
2018-05-19T12:31:51.916Z,1.00
2018-05-19T12:34:20.074Z,1.00
2018-05-19T12:36:49.009Z,1.00
2018-05-19T12:39:17.327Z,1.00
2018-05-19T12:41:46.242Z,1.00
2018-05-19T12:44:14.976Z,1.00
2018-05-19T12:46:43.233Z,1.00
2018-05-19T12:49:11.864Z,1.00
2018-05-19T12:51:39.908Z,1.00
2018-05-19T12:54:08.036Z,1.00
2018-05-19T12:56:36.190Z,1.00
2018-05-19T12:59:05.074Z,1.00
2018-05-19T13:01:33.992Z,1.00
2018-05-19T13:04:02.172Z,1.00
2018-05-19T13:06:30.369Z,1.00
2018-05-19T13:08:58.640Z,1.00
2018-05-19T13:11:26.793Z,1.00
2018-05-19T13:13:54.904Z,1.00
2018-05-19T13:16:23.075Z,1.00
2018-05-19T13:18:51.229Z,1.00
2018-05-19T13:21:19.391Z,1.00
2018-05-19T13:23:48.313Z,1.00
2018-05-19T13:26:16.458Z,1.00
2018-05-19T13:28:45.059Z,1.00
2018-05-19T13:31:13.234Z,1.00
2018-05-19T13:33:41.481Z,1.00
2018-05-19T13:36:10.359Z,1.00
2018-05-19T13:38:38.498Z,1.00
2018-05-19T13:41:07.382Z,1.00
2018-05-19T13:43:35.544Z,1.00
2018-05-19T13:46:03.803Z,1.00
2018-05-19T13:48:32.009Z,1.00
2018-05-19T13:51:00.944Z,1.00
2018-05-19T13:53:29.057Z,1.00
2018-05-19T13:55:57.204Z,1.00
2018-05-19T13:58:25.329Z,1.00
2018-05-19T14:00:54.224Z,1.00
2018-05-19T14:03:22.433Z,1.00
2018-05-19T14:05:50.566Z,1.00
2018-05-19T14:08:18.731Z,1.00
2018-05-19T14:10:48.315Z,1.00
2018-05-19T14:13:16.478Z,1.00
2018-05-19T14:15:44.697Z,1.00
2018-05-19T14:18:12.813Z,1.00
2018-05-19T14:20:41.066Z,1.00
2018-05-19T14:23:09.804Z,1.00
2018-05-19T14:25:39.115Z,1.00
2018-05-19T14:28:08.019Z,1.00
2018-05-19T14:30:36.208Z,1.00
2018-05-19T14:33:04.371Z,1.00
2018-05-19T14:35:32.542Z,1.00
2018-05-19T14:38:00.742Z,1.00
2018-05-19T14:40:29.007Z,1.00
2018-05-19T14:42:57.106Z,1.00
2018-05-19T14:45:25.261Z,1.00
2018-05-19T14:47:53.442Z,1.00
2018-05-19T14:50:21.641Z,1.00
2018-05-19T14:52:49.880Z,1.00
2018-05-19T14:55:18.043Z,1.00
2018-05-19T14:57:46.191Z,1.00
2018-05-19T15:00:14.345Z,1.00
2018-05-19T15:02:43.267Z,1.00
2018-05-19T15:05:11.398Z,1.00
2018-05-19T15:07:39.590Z,1.00
2018-05-19T15:10:08.522Z,1.00
2018-05-19T15:12:36.679Z,1.00
2018-05-19T15:15:05.067Z,1.00
2018-05-19T15:17:33.202Z,1.00
2018-05-19T15:20:01.405Z,1.00
2018-05-19T15:22:29.551Z,1.00
2018-05-19T15:24:58.493Z,1.00
2018-05-19T15:27:26.633Z,1.00
2018-05-19T15:29:54.803Z,1.00
2018-05-19T15:32:22.979Z,1.00
2018-05-19T15:34:51.706Z,1.00
2018-05-19T15:37:20.697Z,1.00
2018-05-19T15:39:48.851Z,1.00
2018-05-19T15:42:16.998Z,1.00
2018-05-19T15:44:45.137Z,1.00
2018-05-19T15:47:13.267Z,1.00
2018-05-19T15:49:41.540Z,1.00
2018-05-19T15:52:09.654Z,1.00
2018-05-19T15:54:38.807Z,1.00
2018-05-19T15:57:07.001Z,1.00
2018-05-19T15:59:35.134Z,1.00
2018-05-19T16:02:03.306Z,1.00
2018-05-19T16:04:31.469Z,1.00
2018-05-19T16:07:00.392Z,1.00
2018-05-19T16:09:28.591Z,1.00
2018-05-19T16:11:56.721Z,1.00
2018-05-19T16:14:24.872Z,1.00
2018-05-19T16:16:55.129Z,1.00
2018-05-19T16:19:23.234Z,1.00
2018-05-19T16:21:51.382Z,1.00
2018-05-19T16:24:19.634Z,1.00
2018-05-19T16:26:47.770Z,1.00
2018-05-19T16:29:17.025Z,1.00
2018-05-19T16:31:45.186Z,1.00
2018-05-19T16:34:13.407Z,1.00
2018-05-19T16:36:42.498Z,1.00
2018-05-19T16:39:10.812Z,1.00
2018-05-19T16:41:39.185Z,1.00
2018-05-19T16:44:07.316Z,1.00
2018-05-19T16:46:35.743Z,1.00
2018-05-19T16:49:04.117Z,1.00
2018-05-19T16:51:32.645Z,1.00
2018-05-19T16:54:00.795Z,1.00
2018-05-19T16:56:28.978Z,1.00
2018-05-19T16:58:57.121Z,1.00
2018-05-19T17:01:25.261Z,1.00
2018-05-19T17:03:53.376Z,1.00
2018-05-19T17:06:21.574Z,1.00
2018-05-19T17:08:49.751Z,1.00
2018-05-19T17:11:17.916Z,1.00
2018-05-19T17:13:46.058Z,1.00
2018-05-19T17:16:14.213Z,1.00
2018-05-19T17:18:42.399Z,1.00
2018-05-19T17:21:10.565Z,1.00
2018-05-19T17:23:38.734Z,1.00
2018-05-19T17:26:06.921Z,1.00
2018-05-19T17:28:35.041Z,1.00
2018-05-19T17:31:03.172Z,1.00
2018-05-19T17:33:31.456Z,1.00
2018-05-19T17:35:59.577Z,1.00
2018-05-19T17:38:27.746Z,1.00
2018-05-19T17:40:56.422Z,1.00
2018-05-19T17:43:24.592Z,1.00
2018-05-19T17:45:52.886Z,1.00
2018-05-19T17:48:21.002Z,1.00
2018-05-19T17:50:49.178Z,1.00
2018-05-19T17:53:17.311Z,1.00
2018-05-19T17:55:46.306Z,1.00
2018-05-19T17:58:15.245Z,1.00
2018-05-19T18:00:43.403Z,1.00
2018-05-19T18:03:11.556Z,1.00
2018-05-19T18:05:39.687Z,1.00
2018-05-19T18:08:07.826Z,1.00
2018-05-19T18:10:36.001Z,1.00
2018-05-19T18:13:04.178Z,1.00
2018-05-19T18:15:32.316Z,1.00
2018-05-19T18:18:00.495Z,2.00
2018-05-19T18:20:29.513Z,2.90
2018-05-19T18:22:57.699Z,3.50
2018-05-19T18:25:25.856Z,4.40
2018-05-19T18:27:54.147Z,5.20
2018-05-19T18:30:22.309Z,5.90
2018-05-19T18:32:50.446Z,6.20
2018-05-19T18:35:18.667Z,6.70
2018-05-19T18:37:46.828Z,7.00
2018-05-19T18:40:14.972Z,7.20
2018-05-19T18:42:43.137Z,7.80
2018-05-19T18:45:11.261Z,8.30
2018-05-19T18:47:39.419Z,8.90
2018-05-19T18:50:07.566Z,9.40
2018-05-19T18:52:35.767Z,9.90
2018-05-19T18:55:04.326Z,10.10
2018-05-19T18:57:32.449Z,10.60
2018-05-19T19:00:00.631Z,10.70
2018-05-19T19:02:29.548Z,11.90
2018-05-19T19:04:57.692Z,11.90
2018-05-19T19:07:25.940Z,12.30
2018-05-19T19:09:54.112Z,12.70
2018-05-19T19:12:22.298Z,13.20
2018-05-19T19:14:50.489Z,13.70
2018-05-19T19:17:19.461Z,13.50
2018-05-19T19:19:47.700Z,13.50
2018-05-19T19:22:15.850Z,13.40
2018-05-19T19:24:44.070Z,13.40
2018-05-19T19:27:12.289Z,13.30
2018-05-19T19:29:41.241Z,13.90
2018-05-19T19:32:09.545Z,13.80
2018-05-19T19:34:38.458Z,14.60
2018-05-19T19:37:06.642Z,14.60
2018-05-19T19:39:34.770Z,14.80
2018-05-19T19:42:02.906Z,14.80
2018-05-19T19:44:31.081Z,14.80
2018-05-19T19:46:59.313Z,14.70
2018-05-19T19:49:27.445Z,15.50
2018-05-19T19:51:55.585Z,15.30
2018-05-19T19:54:23.773Z,15.40
2018-05-19T19:56:51.912Z,15.60
2018-05-19T19:59:20.162Z,15.60
2018-05-19T20:01:48.249Z,15.70
2018-05-19T20:04:17.188Z,16.10
2018-05-19T20:06:45.989Z,16.10
2018-05-19T20:09:14.193Z,16.20
2018-05-19T20:11:43.342Z,16.70
2018-05-19T20:14:11.485Z,16.70
2018-05-19T20:16:39.638Z,16.90
2018-05-19T20:19:08.602Z,17.00
2018-05-19T20:21:36.729Z,17.00
2018-05-19T20:24:04.878Z,17.10
2018-05-19T20:26:33.302Z,17.20
2018-05-19T20:29:01.454Z,17.40
2018-05-19T20:31:29.637Z,18.50
2018-05-19T20:33:57.773Z,17.50
2018-05-19T20:36:26.730Z,17.40
2018-05-19T20:38:54.904Z,17.40
2018-05-19T20:41:23.071Z,17.70
2018-05-19T20:43:51.579Z,17.50
2018-05-19T20:46:19.669Z,17.50
2018-05-19T20:48:47.836Z,17.30
2018-05-19T20:51:16.803Z,18.20
2018-05-19T20:53:45.902Z,17.40
2018-05-19T20:56:14.849Z,17.60
2018-05-19T20:58:42.998Z,17.60
2018-05-19T21:01:11.396Z,17.80
2018-05-19T21:03:39.596Z,17.80
2018-05-19T21:06:07.820Z,17.70
2018-05-19T21:08:35.953Z,17.70
2018-05-19T21:11:04.074Z,17.60
2018-05-19T21:13:32.225Z,17.60
2018-05-19T21:16:01.157Z,17.60
2018-05-19T21:18:29.324Z,17.60
2018-05-19T21:20:57.492Z,17.50
2018-05-19T21:23:25.644Z,17.60
2018-05-19T21:25:53.770Z,17.70
2018-05-19T21:28:21.901Z,17.90
2018-05-19T21:30:50.047Z,17.80
2018-05-19T21:33:18.959Z,17.80
2018-05-19T21:35:47.116Z,17.70
2018-05-19T21:38:16.039Z,17.60
2018-05-19T21:40:44.216Z,17.60
2018-05-19T21:43:12.448Z,17.60
2018-05-19T21:45:41.365Z,17.80
2018-05-19T21:48:09.505Z,17.80
2018-05-19T21:50:38.532Z,18.10
2018-05-19T21:53:06.695Z,18.10
2018-05-19T21:55:34.823Z,18.30
2018-05-19T21:58:03.084Z,18.40
2018-05-19T22:00:31.234Z,18.60
2018-05-19T22:02:59.357Z,18.50
2018-05-19T22:05:28.287Z,18.80
2018-05-19T22:07:56.441Z,18.80
2018-05-19T22:10:24.605Z,18.80
2018-05-19T22:12:53.531Z,18.60
2018-05-19T22:15:21.694Z,18.50
2018-05-19T22:17:49.975Z,18.80
2018-05-19T22:20:18.325Z,18.80
2018-05-19T22:22:47.202Z,18.90
2018-05-19T22:25:16.162Z,19.50
2018-05-19T22:27:44.964Z,19.50
2018-05-19T22:30:13.097Z,19.80
2018-05-19T22:32:41.261Z,19.80
2018-05-19T22:35:09.905Z,19.70
2018-05-19T22:37:38.001Z,19.70
2018-05-19T22:40:06.146Z,19.60
2018-05-19T22:42:35.092Z,19.60
2018-05-19T22:45:03.267Z,19.60
2018-05-19T22:47:31.413Z,19.70
2018-05-19T22:49:59.603Z,20.00
2018-05-19T22:52:28.310Z,19.80
2018-05-19T22:54:56.483Z,19.80
2018-05-19T22:57:24.641Z,19.70
2018-05-19T22:59:52.798Z,20.00
2018-05-19T23:02:20.953Z,20.00
2018-05-19T23:04:49.130Z,20.00
2018-05-19T23:07:17.298Z,20.10
2018-05-19T23:09:45.492Z,19.90
2018-05-19T23:12:13.636Z,19.70
2018-05-19T23:14:41.799Z,19.70
2018-05-19T23:17:10.730Z,19.70
2018-05-19T23:19:38.857Z,19.70
2018-05-19T23:22:07.770Z,19.80
2018-05-19T23:24:35.935Z,19.80
2018-05-19T23:27:04.128Z,20.00
2018-05-19T23:29:33.700Z,20.00
2018-05-19T23:32:02.590Z,20.20
2018-05-19T23:34:31.504Z,20.10
2018-05-19T23:36:59.629Z,20.10
2018-05-19T23:39:27.889Z,20.40
2018-05-19T23:41:56.046Z,20.60
2018-05-19T23:44:24.216Z,20.50
2018-05-19T23:46:52.374Z,20.30
2018-05-19T23:49:21.127Z,20.90
2018-05-19T23:51:50.071Z,21.20
2018-05-19T23:54:18.226Z,21.10
2018-05-19T23:56:46.391Z,21.00
2018-05-19T23:59:14.557Z,21.00
